Time;durP1;ratioP1;P1;durP2;ratioP2;P2;SDS_P1;SDS_P2;PMS_P1;PMS_P2;Temp;Humidity;BMP_temperature;BMP_pressure;BME280_temperature;BME280_humidity;BME280_pressure;Samples;Min_cycle;Max_cycle;Signal;HPM_P1;HPM_P2
2022/05/17 00:01:07;;;;;;;4.30;1.90;;;12.60;99.90;;;;;;5106079;28;20289;-69
2022/05/17 00:03:34;;;;;;;5.43;1.40;;;12.60;99.90;;;;;;5101354;28;20544;-69
2022/05/17 00:05:59;;;;;;;3.87;1.80;;;12.50;99.90;;;;;;5102545;28;20213;-69
2022/05/17 00:08:25;;;;;;;4.20;1.60;;;12.50;99.90;;;;;;5106518;28;20418;-69
2022/05/17 00:10:50;;;;;;;7.03;2.37;;;12.40;99.90;;;;;;5095133;28;21261;-69
2022/05/17 00:13:16;;;;;;;4.77;2.20;;;12.40;99.90;;;;;;5106072;28;20192;-69
2022/05/17 00:15:45;;;;;;;5.93;1.93;;;12.40;99.90;;;;;;5105701;28;20204;-70
2022/05/17 00:18:11;;;;;;;6.73;2.43;;;12.30;99.90;;;;;;5105794;28;20690;-68
2022/05/17 00:20:39;;;;;;;3.90;1.87;;;12.30;99.90;;;;;;5105987;28;20441;-69
2022/05/17 00:23:06;;;;;;;9.83;2.00;;;12.30;99.90;;;;;;5102761;28;21216;-69
2022/05/17 00:25:33;;;;;;;9.23;1.90;;;12.30;99.90;;;;;;5103206;28;20461;-69
2022/05/17 00:27:59;;;;;;;2.90;1.90;;;12.20;99.90;;;;;;5099272;28;20433;-69
2022/05/17 00:30:25;;;;;;;3.87;2.00;;;12.30;99.90;;;;;;5096314;28;20479;-70
2022/05/17 00:32:51;;;;;;;4.67;2.17;;;12.30;99.90;;;;;;5105415;28;20541;-68
2022/05/17 00:35:16;;;;;;;8.80;2.23;;;12.20;99.90;;;;;;5097487;28;20298;-70
2022/05/17 00:37:42;;;;;;;3.93;1.63;;;12.20;99.90;;;;;;5100555;28;20176;-70
2022/05/17 00:40:10;;;;;;;4.07;1.90;;;12.20;99.90;;;;;;5102391;28;20218;-70
2022/05/17 00:42:36;;;;;;;3.50;1.80;;;12.20;99.90;;;;;;5102818;28;20728;-70
2022/05/17 00:45:02;;;;;;;5.27;2.13;;;12.20;99.90;;;;;;5105849;28;20444;-70
2022/05/17 00:47:48;;;;;;;4.50;2.00;;;12.20;99.90;;;;;;5104329;28;20429;-70
2022/05/17 00:50:19;;;;;;;9.43;2.60;;;12.20;99.90;;;;;;5102219;28;20439;-69
2022/05/17 00:52:48;;;;;;;2.30;1.40;;;12.10;99.90;;;;;;5105324;28;20433;-69
2022/05/17 00:55:34;;;;;;;3.73;2.00;;;12.10;99.90;;;;;;5103208;28;20441;-70
2022/05/17 00:58:00;;;;;;;3.17;2.10;;;12.00;99.90;;;;;;5103280;28;20402;-69
2022/05/17 01:00:28;;;;;;;4.87;1.80;;;12.00;99.90;;;;;;5103525;28;20425;-69
2022/05/17 01:03:01;;;;;;;4.00;1.77;;;12.00;99.90;;;;;;5096282;28;20317;-70
2022/05/17 01:05:30;;;;;;;3.60;1.90;;;12.00;99.90;;;;;;5094878;28;20434;-70
2022/05/17 01:07:59;;;;;;;5.47;1.77;;;12.00;99.90;;;;;;5096305;28;20531;-69
2022/05/17 01:10:27;;;;;;;4.20;2.17;;;11.90;99.90;;;;;;5097688;28;20589;-69
2022/05/17 01:15:39;;;;;;;4.60;1.60;;;11.90;99.90;;;;;;5093043;28;20486;-69
2022/05/17 01:18:05;;;;;;;4.83;2.03;;;11.90;99.90;;;;;;5095830;28;20418;-69
2022/05/17 01:20:32;;;;;;;3.60;1.90;;;11.90;99.90;;;;;;5094715;28;20457;-70
2022/05/17 01:22:59;;;;;;;4.80;1.73;;;11.80;99.90;;;;;;5098077;28;20455;-69
2022/05/17 01:25:25;;;;;;;9.10;1.53;;;11.80;99.90;;;;;;5101181;28;20549;-69
2022/05/17 01:28:05;;;;;;;3.33;2.00;;;11.70;99.90;;;;;;5101350;28;20444;-67
2022/05/17 01:30:30;;;;;;;4.40;2.30;;;11.70;99.90;;;;;;5106359;28;20443;-70
2022/05/17 01:32:56;;;;;;;2.60;1.43;;;11.60;99.90;;;;;;5103178;28;20701;-69
2022/05/17 01:35:22;;;;;;;3.90;2.10;;;11.60;99.90;;;;;;5099792;28;20307;-69
2022/05/17 01:37:55;;;;;;;6.40;2.50;;;11.60;99.90;;;;;;5104010;28;20410;-70
2022/05/17 01:40:22;;;;;;;10.57;2.63;;;11.60;99.90;;;;;;5104416;28;20529;-69
2022/05/17 01:42:47;;;;;;;4.03;1.77;;;11.60;99.90;;;;;;5108816;28;20413;-69
2022/05/17 01:45:13;;;;;;;8.40;2.13;;;11.60;99.90;;;;;;5108253;28;20429;-71
2022/05/17 01:47:38;;;;;;;8.20;2.17;;;11.50;99.90;;;;;;5105867;28;20180;-69
2022/05/17 01:50:05;;;;;;;3.63;2.30;;;11.50;99.90;;;;;;5108169;28;20264;-69
2022/05/17 01:52:30;;;;;;;4.53;2.40;;;11.50;99.90;;;;;;5104356;28;20223;-70
2022/05/17 01:54:56;;;;;;;3.97;1.73;;;11.50;99.90;;;;;;5107563;28;20414;-69
2022/05/17 01:57:22;;;;;;;8.73;2.40;;;11.40;99.90;;;;;;5107734;28;20180;-70
2022/05/17 01:59:47;;;;;;;5.10;2.40;;;11.50;99.90;;;;;;5108289;28;20279;-70
2022/05/17 02:02:13;;;;;;;5.30;2.27;;;11.40;99.90;;;;;;5107749;28;20279;-69
2022/05/17 02:04:38;;;;;;;6.13;2.40;;;11.40;99.90;;;;;;5108467;28;20266;-67
2022/05/17 02:07:04;;;;;;;9.23;2.77;;;11.40;99.90;;;;;;5096316;28;20204;-69
2022/05/17 02:09:30;;;;;;;3.43;1.53;;;11.30;99.90;;;;;;5100696;28;20192;-69
2022/05/17 02:11:56;;;;;;;4.23;2.00;;;11.30;99.90;;;;;;5099734;28;20211;-70
2022/05/17 02:14:21;;;;;;;10.70;2.43;;;11.30;99.90;;;;;;5101342;28;20184;-69
2022/05/17 02:16:47;;;;;;;2.70;1.77;;;11.30;99.90;;;;;;5089549;28;20235;-69
2022/05/17 02:19:13;;;;;;;3.73;2.00;;;11.20;99.90;;;;;;5100395;28;20183;-69
2022/05/17 02:21:39;;;;;;;11.27;2.47;;;11.20;99.90;;;;;;5102687;28;20574;-68
2022/05/17 02:24:06;;;;;;;4.20;2.07;;;11.20;99.90;;;;;;5104035;28;20184;-69
2022/05/17 02:26:32;;;;;;;8.40;2.00;;;11.20;99.90;;;;;;5107607;28;20469;-67
2022/05/17 02:28:59;;;;;;;3.77;1.70;;;11.20;99.90;;;;;;5104561;28;20799;-69
2022/05/17 02:31:25;;;;;;;10.63;2.10;;;11.20;99.90;;;;;;5103226;28;20469;-69
2022/05/17 02:33:50;;;;;;;5.50;2.27;;;11.20;99.90;;;;;;5104040;28;20432;-68
2022/05/17 02:36:16;;;;;;;4.37;1.93;;;11.20;99.90;;;;;;5104526;28;20437;-69
2022/05/17 02:38:43;;;;;;;4.43;2.00;;;11.20;99.90;;;;;;5104679;28;20184;-69
2022/05/17 02:41:09;;;;;;;7.17;2.50;;;11.20;99.90;;;;;;5107434;28;20217;-69
2022/05/17 02:43:35;;;;;;;3.40;2.17;;;11.20;99.90;;;;;;5088899;28;20425;-68
2022/05/17 02:46:00;;;;;;;7.43;1.80;;;11.20;99.90;;;;;;5107365;28;20995;-69
2022/05/17 02:48:26;;;;;;;5.70;1.90;;;11.10;99.90;;;;;;5107481;28;20226;-68
2022/05/17 02:50:52;;;;;;;6.30;2.40;;;11.10;99.90;;;;;;5106524;28;20218;-69
2022/05/17 02:53:17;;;;;;;4.00;2.07;;;11.10;99.90;;;;;;5104711;28;20274;-66
2022/05/17 02:55:43;;;;;;;3.47;1.77;;;11.10;99.90;;;;;;5107892;28;21007;-69
2022/05/17 02:58:09;;;;;;;10.20;2.73;;;11.10;99.90;;;;;;5107037;28;20760;-69
2022/05/17 03:00:34;;;;;;;4.47;2.33;;;11.10;99.90;;;;;;5107387;28;20198;-67
2022/05/17 03:03:01;;;;;;;3.80;2.33;;;11.10;99.90;;;;;;5106343;28;20179;-69
2022/05/17 03:05:27;;;;;;;5.40;2.37;;;11.10;99.90;;;;;;5096423;28;20211;-69
2022/05/17 03:07:53;;;;;;;5.57;2.80;;;11.10;99.90;;;;;;5104053;28;20414;-69
2022/05/17 03:10:19;;;;;;;6.73;2.33;;;11.10;99.90;;;;;;5098960;28;20677;-69
2022/05/17 03:12:45;;;;;;;6.53;2.47;;;11.00;99.90;;;;;;5106567;28;20467;-69
2022/05/17 03:15:16;;;;;;;3.43;2.00;;;11.00;99.90;;;;;;5098789;28;20558;-69
2022/05/17 03:17:41;;;;;;;3.60;2.07;;;11.00;99.90;;;;;;5097402;28;20420;-69
2022/05/17 03:20:07;;;;;;;3.40;2.33;;;11.00;99.90;;;;;;5105243;28;20421;-68
2022/05/17 03:22:33;;;;;;;3.80;2.20;;;11.00;99.90;;;;;;5104226;28;20191;-69
2022/05/17 03:24:58;;;;;;;5.83;2.53;;;10.90;99.90;;;;;;5106954;28;20422;-69
2022/05/17 03:27:24;;;;;;;6.47;2.60;;;10.90;99.90;;;;;;5106605;28;20562;-69
2022/05/17 03:29:50;;;;;;;3.80;1.83;;;10.90;99.90;;;;;;5105749;28;20264;-69
2022/05/17 03:32:15;;;;;;;5.10;2.87;;;10.90;99.90;;;;;;5106138;28;20712;-69
2022/05/17 03:34:41;;;;;;;5.00;2.33;;;10.90;99.90;;;;;;5106791;28;20214;-68
2022/05/17 03:37:07;;;;;;;5.13;2.20;;;10.80;99.90;;;;;;5105692;28;20198;-69
2022/05/17 03:39:33;;;;;;;6.00;2.40;;;10.80;99.90;;;;;;5107350;28;20804;-70
2022/05/17 03:41:59;;;;;;;6.93;2.07;;;10.80;99.90;;;;;;5105920;28;20190;-69
2022/05/17 03:44:24;;;;;;;4.87;1.90;;;10.80;99.90;;;;;;5106164;28;20433;-69
2022/05/17 03:46:50;;;;;;;5.40;2.27;;;10.80;99.90;;;;;;5097575;28;20199;-67
2022/05/17 03:49:15;;;;;;;10.43;2.67;;;10.80;99.90;;;;;;5097071;28;20266;-69
2022/05/17 03:51:41;;;;;;;5.60;2.70;;;10.80;99.90;;;;;;5104700;28;20215;-69
2022/05/17 03:54:07;;;;;;;3.93;2.00;;;10.70;99.90;;;;;;5092864;28;20187;-68
2022/05/17 03:56:33;;;;;;;4.27;2.30;;;10.70;99.90;;;;;;5105996;28;20202;-69
2022/05/17 03:58:59;;;;;;;7.77;2.10;;;10.70;99.90;;;;;;5106192;28;20490;-69
2022/05/17 04:01:24;;;;;;;10.37;3.30;;;10.70;99.90;;;;;;5105395;28;20187;-68
2022/05/17 04:03:50;;;;;;;6.23;2.80;;;10.70;99.90;;;;;;5105675;28;20187;-68
2022/05/17 04:06:15;;;;;;;3.33;2.00;;;10.80;99.90;;;;;;5100440;28;20648;-69
2022/05/17 04:08:41;;;;;;;4.80;2.73;;;10.80;99.90;;;;;;5099678;28;20250;-69
2022/05/17 04:11:07;;;;;;;4.63;2.40;;;10.80;99.90;;;;;;5103054;28;20207;-69
2022/05/17 04:13:33;;;;;;;6.30;2.77;;;10.80;99.90;;;;;;5093906;28;20241;-69
2022/05/17 04:16:01;;;;;;;3.57;2.33;;;10.80;99.90;;;;;;5103891;28;20441;-70
2022/05/17 04:18:28;;;;;;;4.83;2.30;;;10.80;99.90;;;;;;5106622;28;20412;-69
2022/05/17 04:20:58;;;;;;;5.27;2.80;;;10.90;99.90;;;;;;5101042;28;20587;-69
2022/05/17 04:23:24;;;;;;;5.13;2.30;;;10.90;99.90;;;;;;5082212;28;20522;-67
2022/05/17 04:25:50;;;;;;;6.97;3.87;;;11.00;99.90;;;;;;5105453;28;20925;-68
2022/05/17 04:28:17;;;;;;;7.57;3.83;;;11.00;99.90;;;;;;5102261;28;20197;-67
2022/05/17 04:30:43;;;;;;;7.23;3.13;;;11.00;99.90;;;;;;5104177;28;20228;-67
2022/05/17 04:33:09;;;;;;;10.20;2.77;;;11.10;99.90;;;;;;5104963;28;20421;-67
2022/05/17 04:35:35;;;;;;;5.70;2.20;;;11.20;99.90;;;;;;5101408;28;20444;-68
2022/05/17 04:38:01;;;;;;;8.20;2.63;;;11.20;99.90;;;;;;5104686;28;20176;-67
2022/05/17 04:40:27;;;;;;;8.60;2.70;;;11.20;99.90;;;;;;5105857;28;20572;-67
2022/05/17 04:42:56;;;;;;;5.77;2.73;;;11.20;99.90;;;;;;5102134;28;20425;-67
2022/05/17 04:45:23;;;;;;;5.50;2.33;;;11.20;99.90;;;;;;5105173;28;20207;-67
2022/05/17 04:47:48;;;;;;;6.00;3.20;;;11.30;99.90;;;;;;5105301;28;20556;-68
2022/05/17 04:50:15;;;;;;;4.40;2.60;;;11.30;99.90;;;;;;5103297;28;20508;-68
2022/05/17 04:52:41;;;;;;;3.67;2.13;;;11.40;99.90;;;;;;5094117;28;20215;-68
2022/05/17 04:55:08;;;;;;;7.87;2.80;;;11.50;99.90;;;;;;5097595;28;20478;-68
2022/05/17 04:57:35;;;;;;;4.20;2.60;;;11.50;99.90;;;;;;5105584;28;20183;-68
2022/05/17 05:00:06;;;;;;;5.10;2.93;;;11.60;99.90;;;;;;5105098;28;20421;-68
2022/05/17 05:02:31;;;;;;;5.93;2.60;;;11.60;99.90;;;;;;5103421;28;20544;-68
2022/05/17 05:04:57;;;;;;;3.70;2.30;;;11.70;99.90;;;;;;5109060;28;20520;-67
2022/05/17 05:07:22;;;;;;;5.60;2.40;;;11.80;99.90;;;;;;5108839;28;20187;-69
2022/05/17 05:09:48;;;;;;;4.30;2.80;;;11.80;99.90;;;;;;5109325;28;20253;-68
2022/05/17 05:12:14;;;;;;;8.03;2.83;;;11.90;99.90;;;;;;5103418;28;20282;-68
2022/05/17 05:14:40;;;;;;;10.53;3.70;;;12.00;99.90;;;;;;5088359;28;20188;-67
2022/05/17 05:17:05;;;;;;;7.37;2.53;;;12.10;99.90;;;;;;5084252;28;20230;-68
2022/05/17 05:19:31;;;;;;;5.13;2.50;;;12.10;99.90;;;;;;5109462;28;20892;-67
2022/05/17 05:21:58;;;;;;;5.60;2.37;;;12.20;99.90;;;;;;5108842;28;20259;-67
2022/05/17 05:24:23;;;;;;;4.13;2.50;;;12.30;99.90;;;;;;5109875;28;20206;-68
2022/05/17 05:26:49;;;;;;;6.87;3.00;;;12.40;99.90;;;;;;5108716;28;20441;-67
2022/05/17 05:29:15;;;;;;;7.93;2.47;;;12.50;99.90;;;;;;5109691;28;20654;-67
2022/05/17 05:31:41;;;;;;;6.73;3.30;;;12.60;99.90;;;;;;5103324;28;20692;-67
2022/05/17 05:34:06;;;;;;;8.60;3.20;;;12.70;99.90;;;;;;5106813;27;20467;-68
2022/05/17 05:36:32;;;;;;;4.70;2.73;;;12.80;99.90;;;;;;5107057;27;20456;-67
2022/05/17 05:38:58;;;;;;;5.10;2.03;;;12.90;99.90;;;;;;5105882;28;20719;-68
2022/05/17 05:41:23;;;;;;;7.03;2.70;;;13.00;99.90;;;;;;5089107;28;20723;-67
2022/05/17 05:43:49;;;;;;;4.50;2.50;;;13.10;99.90;;;;;;5107002;28;20180;-68
2022/05/17 05:46:15;;;;;;;9.70;4.07;;;13.20;99.90;;;;;;5105242;28;20291;-67
2022/05/17 05:48:41;;;;;;;5.17;3.00;;;13.20;99.90;;;;;;5104846;27;20281;-68
2022/05/17 05:51:07;;;;;;;5.37;2.57;;;13.30;99.90;;;;;;5102229;27;20215;-69
2022/05/17 05:53:33;;;;;;;7.53;3.13;;;13.40;99.90;;;;;;5095970;28;20256;-68
2022/05/17 05:56:01;;;;;;;4.87;2.97;;;13.60;99.90;;;;;;5095965;28;20473;-68
2022/05/17 05:58:32;;;;;;;5.13;2.97;;;13.70;99.90;;;;;;5060416;28;20433;-68
2022/05/17 06:00:58;;;;;;;4.70;2.80;;;13.80;99.90;;;;;;5099367;28;20461;-67
2022/05/17 06:03:24;;;;;;;7.50;3.73;;;13.90;99.90;;;;;;5105057;28;20429;-67
2022/05/17 06:05:50;;;;;;;4.70;2.70;;;14.10;99.90;;;;;;5100656;28;20461;-67
2022/05/17 06:08:17;;;;;;;5.90;3.00;;;14.20;99.90;;;;;;5099992;28;20433;-68
2022/05/17 06:10:43;;;;;;;4.67;2.40;;;14.30;99.90;;;;;;5103359;28;20187;-68
2022/05/17 06:13:14;;;;;;;5.20;3.00;;;14.40;99.90;;;;;;5098248;28;20418;-68
2022/05/17 06:15:40;;;;;;;5.97;2.77;;;14.50;99.90;;;;;;5098423;28;20461;-69
2022/05/17 06:18:07;;;;;;;5.63;3.00;;;14.60;99.90;;;;;;5097155;28;20496;-68
2022/05/17 06:20:34;;;;;;;6.87;2.67;;;14.80;99.90;;;;;;5098038;28;20503;-69
2022/05/17 06:23:00;;;;;;;5.40;2.90;;;14.90;99.90;;;;;;5103970;28;20429;-68
2022/05/17 06:25:26;;;;;;;7.10;3.60;;;15.00;99.90;;;;;;5105247;28;20437;-69
2022/05/17 06:27:51;;;;;;;5.07;2.70;;;15.10;99.90;;;;;;5107271;28;20263;-68
2022/05/17 06:30:18;;;;;;;6.10;3.10;;;15.30;99.90;;;;;;5104744;28;20189;-70
2022/05/17 06:32:44;;;;;;;6.67;3.63;;;15.40;99.90;;;;;;5104850;28;20602;-69
2022/05/17 06:35:11;;;;;;;8.40;3.87;;;15.50;99.90;;;;;;5097182;28;21080;-68
2022/05/17 06:37:37;;;;;;;9.03;3.67;;;15.70;99.90;;;;;;5113433;27;21370;-69
2022/05/17 06:40:05;;;;;;;10.60;3.33;;;15.80;99.90;;;;;;5100732;28;20418;-69
2022/05/17 06:42:32;;;;;;;7.87;4.30;;;16.00;99.90;;;;;;5099123;28;20215;-69
2022/05/17 06:44:58;;;;;;;9.27;4.13;;;16.10;99.90;;;;;;5096369;28;20486;-68
2022/05/17 06:47:24;;;;;;;12.43;4.20;;;16.30;99.90;;;;;;5106871;28;20470;-69
2022/05/17 06:49:50;;;;;;;7.93;4.90;;;16.40;99.90;;;;;;5106345;28;20517;-69
2022/05/17 06:52:16;;;;;;;8.87;3.00;;;16.60;99.90;;;;;;5104935;28;20462;-68
2022/05/17 06:54:43;;;;;;;14.63;5.13;;;16.70;99.90;;;;;;5105003;28;20180;-68
2022/05/17 06:57:11;;;;;;;12.60;3.60;;;16.90;99.90;;;;;;5102693;28;20971;-68
2022/05/17 06:59:39;;;;;;;8.67;3.97;;;17.00;99.90;;;;;;5104956;28;20821;-68
2022/05/17 07:02:05;;;;;;;7.47;3.37;;;17.30;99.90;;;;;;5104866;28;20413;-69
2022/05/17 07:04:33;;;;;;;5.57;3.83;;;17.60;99.90;;;;;;5105201;28;20453;-69
2022/05/17 07:06:59;;;;;;;4.47;2.77;;;17.80;99.90;;;;;;5103581;28;20441;-68
2022/05/17 07:09:27;;;;;;;8.40;2.77;;;18.20;99.90;;;;;;5105594;28;21204;-68
2022/05/17 07:14:38;;;;;;;5.63;3.23;;;18.20;99.90;;;;;;5105677;28;20466;-69
2022/05/17 07:17:05;;;;;;;12.20;2.63;;;18.50;99.90;;;;;;5103351;28;20845;-69
2022/05/17 07:19:34;;;;;;;8.63;3.93;;;19.10;99.90;;;;;;5103798;28;20296;-68
2022/05/17 07:22:01;;;;;;;8.00;4.00;;;19.20;99.90;;;;;;5104825;28;20418;-69
2022/05/17 07:24:27;;;;;;;6.20;3.50;;;19.50;99.90;;;;;;5104403;27;20428;-68
2022/05/17 07:26:53;;;;;;;13.33;3.57;;;19.70;99.90;;;;;;5086170;28;20447;-69
2022/05/17 07:29:19;;;;;;;6.50;3.20;;;19.90;99.90;;;;;;5086953;28;20194;-69
2022/05/17 07:31:45;;;;;;;6.03;3.80;;;20.30;99.90;;;;;;5102113;28;20456;-69
2022/05/17 07:34:12;;;;;;;6.43;2.63;;;21.10;99.50;;;;;;5104578;28;20236;-69
2022/05/17 07:36:37;;;;;;;4.57;2.80;;;22.10;98.20;;;;;;5102133;28;20676;-69
2022/05/17 07:39:03;;;;;;;7.70;3.67;;;22.60;97.30;;;;;;5104269;28;20998;-70
2022/05/17 07:41:28;;;;;;;6.00;3.27;;;23.50;95.80;;;;;;5104547;28;20212;-69
2022/05/17 07:43:54;;;;;;;4.65;2.92;;;24.40;94.10;;;;;;5105430;28;20266;-68
2022/05/17 07:46:26;;;;;;;7.78;3.50;;;25.70;90.40;;;;;;5061919;28;20941;-65
2022/05/17 07:48:52;;;;;;;6.65;3.15;;;26.20;88.30;;;;;;5054286;28;20267;-64
2022/05/17 07:51:18;;;;;;;5.80;2.95;;;26.30;86.30;;;;;;5043786;28;20205;-66
2022/05/17 07:53:43;;;;;;;5.50;3.47;;;26.70;85.00;;;;;;5045862;28;20638;-65
2022/05/17 07:56:09;;;;;;;5.97;3.00;;;26.20;85.50;;;;;;5044337;28;20599;-65
2022/05/17 07:58:35;;;;;;;5.95;3.05;;;25.80;86.40;;;;;;5040526;28;20189;-66
2022/05/17 08:01:02;;;;;;;11.63;2.95;;;25.90;87.00;;;;;;5040563;28;20219;-66
2022/05/17 08:03:28;;;;;;;4.45;2.55;;;25.70;87.00;;;;;;5041153;28;20188;-65
2022/05/17 08:05:54;;;;;;;4.03;2.25;;;25.60;88.30;;;;;;5043498;28;20213;-65
2022/05/17 08:08:20;;;;;;;6.00;2.25;;;25.90;88.80;;;;;;5041542;28;20208;-66
2022/05/17 08:10:45;;;;;;;6.53;2.78;;;25.90;86.70;;;;;;5042734;28;20201;-65
2022/05/17 08:13:14;;;;;;;3.83;2.45;;;26.00;84.50;;;;;;5042149;28;20192;-66
2022/05/17 08:15:40;;;;;;;5.05;2.13;;;26.00;85.60;;;;;;5040307;28;20181;-65
2022/05/17 08:18:06;;;;;;;4.93;2.60;;;25.00;85.20;;;;;;5043812;28;20185;-65
2022/05/17 08:20:32;;;;;;;12.32;2.88;;;25.30;87.10;;;;;;5041993;28;20224;-65
2022/05/17 08:22:59;;;;;;;4.63;2.47;;;25.70;84.90;;;;;;5041706;28;20197;-66
2022/05/17 08:28:09;;;;;;;7.88;2.65;;;26.20;82.90;;;;;;5041840;28;20236;-66
2022/05/17 08:30:36;;;;;;;3.95;1.77;;;25.80;81.90;;;;;;5048865;28;20630;-66
2022/05/17 08:33:17;;;;;;;7.05;2.67;;;25.90;82.20;;;;;;5042811;28;20335;-66
2022/05/17 08:36:15;;;;;;;5.88;2.97;;;25.90;84.10;;;;;;5042141;28;20782;-66
2022/05/17 08:38:49;;;;;;;9.35;2.47;;;25.30;85.30;;;;;;5043511;28;20196;-65
2022/05/17 08:41:40;;;;;;;5.63;2.95;;;24.70;86.50;;;;;;5043178;28;20216;-66
2022/05/17 08:44:17;;;;;;;4.97;2.80;;;24.40;86.50;;;;;;5040226;28;20193;-65
2022/05/17 08:47:11;;;;;;;7.38;2.63;;;24.10;87.60;;;;;;5042487;28;20579;-65
2022/05/17 08:49:58;;;;;;;5.50;2.83;;;23.60;88.40;;;;;;5043871;28;20178;-65
2022/05/17 08:52:26;;;;;;;5.93;2.30;;;23.40;90.20;;;;;;5033324;28;20609;-65
2022/05/17 08:54:59;;;;;;;4.67;2.47;;;23.40;89.80;;;;;;5046318;28;20185;-65
2022/05/17 08:57:38;;;;;;;6.67;2.33;;;24.00;86.90;;;;;;5025171;28;20649;-65
2022/05/17 09:00:26;;;;;;;5.17;2.73;;;24.10;86.20;;;;;;5025994;28;20237;-65
2022/05/17 09:02:53;;;;;;;7.20;2.00;;;24.40;86.30;;;;;;5031541;28;20205;-65
2022/05/17 09:05:22;;;;;;;6.00;2.60;;;24.00;88.70;;;;;;5034811;28;20217;-65
2022/05/17 09:08:23;;;;;;;7.07;2.47;;;24.30;87.10;;;;;;5029974;28;20421;-65
2022/05/17 09:11:21;;;;;;;4.53;2.23;;;24.60;83.80;;;;;;5031390;28;20602;-65
2022/05/17 09:13:53;;;;;;;5.03;2.30;;;23.80;85.90;;;;;;5024171;28;20384;-66
2022/05/17 09:16:21;;;;;;;8.70;2.87;;;24.00;86.30;;;;;;5033846;28;20561;-65
2022/05/17 09:18:47;;;;;;;4.93;2.20;;;24.20;85.20;;;;;;5032411;28;20186;-65
2022/05/17 09:21:32;;;;;;;7.13;1.93;;;24.00;87.40;;;;;;5035011;28;20178;-65
2022/05/17 09:24:01;;;;;;;3.37;2.07;;;24.10;84.50;;;;;;5027450;28;20190;-66
2022/05/17 09:26:28;;;;;;;12.63;3.30;;;24.20;85.00;;;;;;5028969;28;20580;-65
2022/05/17 09:29:03;;;;;;;5.83;1.93;;;24.10;83.00;;;;;;5029062;28;20228;-66
2022/05/17 09:31:35;;;;;;;5.53;1.70;;;24.40;84.00;;;;;;5027572;28;20189;-65
2022/05/17 09:34:06;;;;;;;11.73;2.30;;;24.40;80.70;;;;;;5027252;28;20304;-65
2022/05/17 09:36:48;;;;;;;14.05;2.30;;;24.70;83.40;;;;;;5028234;28;20196;-66
2022/05/17 09:39:20;;;;;;;4.15;1.90;;;24.40;81.00;;;;;;5029133;28;20185;-66
2022/05/17 09:41:47;;;;;;;7.40;2.35;;;24.20;84.70;;;;;;5026245;28;20190;-64
2022/05/17 09:44:21;;;;;;;5.80;2.13;;;24.40;83.60;;;;;;5028482;28;20621;-65
2022/05/17 09:46:49;;;;;;;4.50;2.28;;;24.70;81.10;;;;;;5026946;28;20201;-65
2022/05/17 09:52:44;;;;;;;3.80;2.38;;;24.70;81.90;;;;;;5027845;28;20275;-64
2022/05/17 09:55:25;;;;;;;4.68;2.30;;;25.00;77.60;;;;;;5026206;28;20328;-65
2022/05/17 09:58:00;;;;;;;4.82;1.75;;;24.90;79.50;;;;;;5025866;28;20201;-65
2022/05/17 10:00:42;;;;;;;2.42;1.27;;;24.80;74.80;;;;;;5026466;28;20185;-65
2022/05/17 10:04:00;;;;;;;4.05;1.33;;;25.20;73.30;;;;;;5024296;28;20181;-66
2022/05/17 10:06:34;;;;;;;18.83;2.30;;;25.00;72.30;;;;;;4999949;28;20210;-66
2022/05/17 10:09:08;;;;;;;3.20;1.45;;;24.90;74.80;;;;;;5002814;28;20189;-65
2022/05/17 10:11:45;;;;;;;3.28;1.83;;;24.90;76.40;;;;;;5019254;28;20186;-66
2022/05/17 10:14:23;;;;;;;8.67;2.17;;;24.70;75.20;;;;;;5025512;28;20181;-66
2022/05/17 10:16:54;;;;;;;1.93;1.13;;;24.60;74.90;;;;;;5025004;28;20191;-64
2022/05/17 10:19:50;;;;;;;8.67;2.30;;;24.60;74.90;;;;;;5029626;28;21109;-65
2022/05/17 10:22:30;;;;;;;4.10;2.07;;;24.60;76.70;;;;;;5026054;28;20527;-66
2022/05/17 10:25:22;;;;;;;3.33;1.90;;;24.60;77.20;;;;;;5026682;28;20459;-66
2022/05/17 10:28:13;;;;;;;21.17;2.40;;;24.60;76.60;;;;;;5027598;28;20438;-65
2022/05/17 10:30:45;;;;;;;3.27;1.67;;;24.60;77.00;;;;;;5026825;28;21051;-66
2022/05/17 10:33:35;;;;;;;7.27;2.50;;;24.40;76.40;;;;;;5028624;28;20424;-66
2022/05/17 10:36:05;;;;;;;4.60;1.73;;;23.90;76.90;;;;;;5027170;28;20436;-65
2022/05/17 10:38:38;;;;;;;4.00;2.40;;;23.80;80.10;;;;;;5030340;28;20793;-65
2022/05/17 10:41:08;;;;;;;2.90;1.87;;;23.90;81.80;;;;;;5028432;28;20450;-65
2022/05/17 10:43:37;;;;;;;3.07;1.70;;;24.10;79.40;;;;;;5029742;28;20582;-66
2022/05/17 10:46:06;;;;;;;6.97;2.13;;;24.00;81.00;;;;;;5025136;28;20496;-66
2022/05/17 10:48:38;;;;;;;5.73;1.70;;;24.10;78.60;;;;;;5025317;28;20514;-66
2022/05/17 10:51:07;;;;;;;5.57;2.00;;;24.20;77.70;;;;;;5026030;28;20412;-66
2022/05/17 10:53:46;;;;;;;7.80;2.10;;;24.10;76.80;;;;;;5027565;28;20798;-66
2022/05/17 10:56:33;;;;;;;2.60;1.73;;;24.10;78.70;;;;;;5025372;28;20452;-65
2022/05/17 10:59:09;;;;;;;4.80;2.10;;;24.00;75.00;;;;;;5025177;28;20427;-65
2022/05/17 11:01:48;;;;;;;3.30;1.87;;;24.10;78.00;;;;;;5026029;28;20459;-67
2022/05/17 11:04:23;;;;;;;3.80;1.80;;;24.20;79.10;;;;;;5026526;28;20488;-65
2022/05/17 11:07:04;;;;;;;6.70;2.27;;;24.00;78.40;;;;;;5026300;28;20822;-65
2022/05/17 11:09:48;;;;;;;6.17;2.17;;;24.20;81.10;;;;;;5025118;28;20465;-65
2022/05/17 11:12:17;;;;;;;4.37;2.30;;;24.40;80.20;;;;;;5026011;28;20424;-66
2022/05/17 11:14:57;;;;;;;3.47;2.00;;;24.70;76.20;;;;;;5029865;28;20416;-65
2022/05/17 11:17:30;;;;;;;6.57;1.80;;;24.60;78.20;;;;;;5032298;28;20462;-65
2022/05/17 11:20:38;;;;;;;3.00;1.70;;;24.60;79.30;;;;;;5027556;28;20897;-66
2022/05/17 11:23:42;;;;;;;3.93;1.83;;;24.80;78.90;;;;;;5023057;28;20435;-66
2022/05/17 11:26:14;;;;;;;5.03;1.93;;;24.80;78.60;;;;;;5021646;28;20471;-65
2022/05/17 11:28:44;;;;;;;4.00;2.20;;;24.50;77.60;;;;;;5024537;28;20413;-66
2022/05/17 11:31:28;;;;;;;2.90;1.80;;;24.60;80.30;;;;;;5026194;28;20523;-65
2022/05/17 11:34:26;;;;;;;7.93;2.10;;;24.60;76.60;;;;;;5032473;28;20446;-65
2022/05/17 11:36:56;;;;;;;4.40;1.50;;;25.00;79.00;;;;;;5027197;28;20417;-67
2022/05/17 11:39:31;;;;;;;7.00;1.90;;;25.20;77.20;;;;;;5024442;28;20412;-66
2022/05/17 11:42:06;;;;;;;4.63;1.33;;;25.50;73.70;;;;;;5022014;28;20815;-65
2022/05/17 11:44:49;;;;;;;3.57;1.87;;;24.90;75.60;;;;;;5025764;28;20518;-65
2022/05/17 11:47:38;;;;;;;3.47;1.70;;;24.80;76.10;;;;;;5024571;28;20412;-64
2022/05/17 11:50:16;;;;;;;4.57;1.93;;;25.10;74.80;;;;;;5024726;28;21007;-65
2022/05/17 11:52:44;;;;;;;7.57;2.50;;;25.10;77.60;;;;;;5025370;28;20950;-66
2022/05/17 11:55:25;;;;;;;4.43;1.90;;;24.90;75.10;;;;;;5019149;28;20433;-66
2022/05/17 11:57:51;;;;;;;3.00;1.70;;;25.10;77.90;;;;;;5021595;28;20523;-66
2022/05/17 12:00:28;;;;;;;2.83;1.70;;;25.40;76.80;;;;;;5019012;28;20443;-65
2022/05/17 12:02:54;;;;;;;3.93;1.90;;;25.30;76.10;;;;;;5024672;28;20598;-68
2022/05/17 12:05:38;;;;;;;4.50;2.00;;;25.00;76.10;;;;;;5027658;28;20491;-65
2022/05/17 12:08:30;;;;;;;5.80;2.70;;;24.80;76.60;;;;;;5025877;28;20188;-66
2022/05/17 12:11:11;;;;;;;3.90;1.97;;;24.60;80.50;;;;;;5024210;28;20421;-67
2022/05/17 12:13:56;;;;;;;7.37;2.33;;;25.00;76.10;;;;;;5026760;28;20409;-67
2022/05/17 12:16:25;;;;;;;2.80;1.73;;;24.80;77.70;;;;;;5025342;28;20495;-66
2022/05/17 12:18:59;;;;;;;2.97;1.53;;;25.20;79.80;;;;;;5026008;28;20539;-67
2022/05/17 12:21:46;;;;;;;6.90;1.70;;;25.10;79.50;;;;;;5022194;28;20614;-67
2022/05/17 12:24:28;;;;;;;3.80;1.77;;;25.00;76.90;;;;;;5023934;28;20424;-67
2022/05/17 12:27:15;;;;;;;6.30;1.80;;;24.80;76.90;;;;;;5018496;28;20529;-66
2022/05/17 12:32:35;;;;;;;4.90;1.80;;;24.90;75.30;;;;;;5017632;28;20427;-67
2022/05/17 12:35:01;;;;;;;4.50;1.30;;;25.30;73.30;;;;;;5021923;28;21187;-67
2022/05/17 12:37:28;;;;;;;3.03;1.10;;;25.50;72.60;;;;;;5025420;28;20432;-66
2022/05/17 12:43:02;;;;;;;6.07;1.60;;;26.00;66.40;;;;;;5028348;28;20422;-67
2022/05/17 12:45:31;;;;;;;3.57;2.03;;;25.70;70.60;;;;;;5029023;28;20867;-67
2022/05/17 12:48:00;;;;;;;3.00;1.30;;;25.70;70.50;;;;;;5028914;28;20502;-67
2022/05/17 12:50:52;;;;;;;2.17;1.30;;;25.80;68.50;;;;;;5021545;28;20462;-67
2022/05/17 12:53:29;;;;;;;2.57;1.17;;;26.20;65.30;;;;;;5027430;28;20178;-65
2022/05/17 12:56:01;;;;;;;9.50;1.57;;;26.10;65.90;;;;;;5028549;28;20412;-65
2022/05/17 12:58:27;;;;;;;3.10;1.30;;;26.30;66.60;;;;;;5026753;28;20279;-65
2022/05/17 13:00:55;;;;;;;2.43;1.30;;;26.50;67.10;;;;;;5028318;28;20280;-65
2022/05/17 13:03:23;;;;;;;6.73;1.60;;;26.20;67.20;;;;;;5032219;28;20189;-65
2022/05/17 13:05:51;;;;;;;3.10;1.27;;;26.20;65.50;;;;;;5037019;28;20216;-64
2022/05/17 13:08:27;;;;;;;4.13;1.57;;;26.50;66.70;;;;;;5026068;28;20186;-65
2022/05/17 13:11:24;;;;;;;4.10;1.53;;;26.30;66.10;;;;;;5032101;28;20254;-64
2022/05/17 13:14:06;;;;;;;2.90;1.27;;;26.20;69.30;;;;;;5028997;28;20177;-65
2022/05/17 13:16:36;;;;;;;6.17;1.90;;;26.50;66.90;;;;;;5027168;28;20186;-67
2022/05/17 13:19:04;;;;;;;6.77;1.83;;;26.60;68.40;;;;;;5020425;28;20254;-65